Time;durP1;ratioP1;P1;durP2;ratioP2;P2;SDS_P1;SDS_P2;PMS_P1;PMS_P2;Temp;Humidity;BMP_temperature;BMP_pressure;BME280_temperature;BME280_humidity;BME280_pressure;Samples;Min_cycle;Max_cycle;Signal;HPM_P1;HPM_P2
2023/06/17 00:00:55;;;;;;;;;;;20.30;70.10;;;;;;5047005;28;930;-66
2023/06/17 00:03:21;;;;;;;;;;;20.30;70.10;;;;;;5047113;28;887;-66
2023/06/17 00:05:46;;;;;;;;;;;20.30;70.10;;;;;;5049138;28;1267;-66
2023/06/17 00:08:11;;;;;;;;;;;20.30;70.10;;;;;;5047722;28;911;-66
2023/06/17 00:10:37;;;;;;;;;;;20.30;70.10;;;;;;5048430;28;1046;-66
2023/06/17 00:13:03;;;;;;;;;;;20.30;70.10;;;;;;5046133;28;796;-66
2023/06/17 00:15:32;;;;;;;;;;;20.30;70.10;;;;;;5047542;28;1905;-66
2023/06/17 00:18:00;;;;;;;;;;;20.30;70.10;;;;;;5047359;28;907;-66
2023/06/17 00:20:25;;;;;;;;;;;20.30;70.10;;;;;;5046857;28;809;-66
2023/06/17 00:22:52;;;;;;;;;;;20.30;70.10;;;;;;5048184;28;979;-66
2023/06/17 00:25:18;;;;;;;;;;;20.30;70.10;;;;;;5046285;28;1228;-66
2023/06/17 00:27:43;;;;;;;;;;;20.30;70.10;;;;;;5045825;28;1140;-66
2023/06/17 00:30:09;;;;;;;;;;;20.30;70.10;;;;;;5047790;28;835;-66
2023/06/17 00:32:35;;;;;;;;;;;20.30;70.10;;;;;;5043446;28;849;-66
2023/06/17 00:35:01;;;;;;;;;;;20.30;70.10;;;;;;5047529;28;1994;-66
2023/06/17 00:37:26;;;;;;;;;;;20.30;70.10;;;;;;5049122;28;792;-66
2023/06/17 00:39:52;;;;;;;;;;;20.30;70.10;;;;;;5048520;28;813;-66
2023/06/17 00:42:17;;;;;;;;;;;20.30;70.10;;;;;;5047153;28;1038;-67
2023/06/17 00:44:42;;;;;;;;;;;20.20;70.10;;;;;;5048221;28;1708;-66
2023/06/17 00:47:09;;;;;;;;;;;20.30;70.10;;;;;;5048097;28;804;-66
2023/06/17 00:49:38;;;;;;;;;;;20.30;70.20;;;;;;5046905;28;807;-66
2023/06/17 00:52:04;;;;;;;;;;;20.30;70.10;;;;;;5045916;28;900;-67
2023/06/17 00:54:33;;;;;;;;;;;20.30;70.20;;;;;;5046365;28;1985;-66
2023/06/17 00:57:01;;;;;;;;;;;20.30;70.10;;;;;;5048106;28;860;-66
2023/06/17 00:59:28;;;;;;;;;;;20.30;70.10;;;;;;5045358;28;861;-66
2023/06/17 01:01:53;;;;;;;;;;;20.30;70.10;;;;;;5045747;28;851;-66
2023/06/17 01:04:19;;;;;;;;;;;20.30;70.10;;;;;;5048508;28;1269;-66
2023/06/17 01:06:50;;;;;;;;;;;20.30;70.10;;;;;;5044732;28;1010;-66
2023/06/17 01:09:16;;;;;;;;;;;20.30;70.10;;;;;;5043472;28;860;-66
2023/06/17 01:11:41;;;;;;;;;;;20.30;70.20;;;;;;5036911;28;812;-66
2023/06/17 01:14:10;;;;;;;;;;;20.30;70.10;;;;;;5048311;28;1235;-66
2023/06/17 01:16:42;;;;;;;;;;;20.30;70.20;;;;;;5046818;28;1898;-66
2023/06/17 01:19:18;;;;;;;;;;;20.30;70.90;;;;;;5050157;28;962;-66
2023/06/17 01:21:51;;;;;;;;;;;20.30;70.20;;;;;;5048522;28;1315;-66
2023/06/17 01:24:36;;;;;;;;;;;20.30;70.20;;;;;;5050316;28;1348;-66
2023/06/17 01:27:02;;;;;;;;;;;20.30;70.20;;;;;;5048484;28;1427;-66
2023/06/17 01:29:29;;;;;;;;;;;20.30;70.20;;;;;;5048713;28;864;-66
2023/06/17 01:31:57;;;;;;;;;;;20.30;70.20;;;;;;5049446;28;916;-66
2023/06/17 01:34:34;;;;;;;;;;;20.30;70.20;;;;;;5049461;28;1968;-66
2023/06/17 01:37:00;;;;;;;;;;;20.30;70.20;;;;;;5040901;28;970;-66
2023/06/17 01:39:26;;;;;;;;;;;20.30;70.20;;;;;;5044970;28;970;-66
2023/06/17 01:41:52;;;;;;;;;;;20.30;70.20;;;;;;5047080;28;892;-66
2023/06/17 01:44:17;;;;;;;;;;;20.30;70.20;;;;;;5050587;28;1365;-66
2023/06/17 01:46:43;;;;;;;;;;;20.30;70.20;;;;;;5049488;28;892;-66
2023/06/17 01:49:08;;;;;;;;;;;20.30;70.20;;;;;;5050173;28;784;-66
2023/06/17 01:51:35;;;;;;;;;;;20.30;70.20;;;;;;5049729;28;879;-66
2023/06/17 01:54:00;;;;;;;;;;;20.30;70.20;;;;;;5049705;28;1284;-66
2023/06/17 01:56:26;;;;;;;;;;;20.30;70.20;;;;;;5050175;28;1969;-66
2023/06/17 01:58:51;;;;;;;;;;;20.30;70.20;;;;;;5048946;28;1360;-66
2023/06/17 02:01:16;;;;;;;;;;;20.20;70.10;;;;;;5048894;28;901;-66
2023/06/17 02:03:42;;;;;;;;;;;20.30;70.20;;;;;;5050428;28;950;-66
2023/06/17 02:06:07;;;;;;;;;;;20.20;70.90;;;;;;5049777;28;1259;-66
2023/06/17 02:08:34;;;;;;;;;;;20.30;70.20;;;;;;5046654;28;828;-66
2023/06/17 02:11:00;;;;;;;;;;;20.20;70.10;;;;;;5044308;28;859;-66
2023/06/17 02:13:25;;;;;;;;;;;20.30;70.20;;;;;;5050284;28;822;-66
2023/06/17 02:15:51;;;;;;;;;;;20.30;70.20;;;;;;5046618;28;1982;-66
2023/06/17 02:18:17;;;;;;;;;;;20.30;70.20;;;;;;5049428;28;1018;-66
2023/06/17 02:20:42;;;;;;;;;;;20.30;70.20;;;;;;5050703;28;840;-66
2023/06/17 02:23:08;;;;;;;;;;;20.30;70.20;;;;;;5049905;28;1331;-66
2023/06/17 02:25:33;;;;;;;;;;;20.30;70.20;;;;;;5048793;28;1270;-66
2023/06/17 02:27:59;;;;;;;;;;;20.30;70.20;;;;;;5050489;28;1361;-66
2023/06/17 02:30:24;;;;;;;;;;;20.30;70.20;;;;;;5050420;28;873;-66
2023/06/17 02:32:50;;;;;;;;;;;20.30;70.20;;;;;;5047268;28;900;-67
2023/06/17 02:35:15;;;;;;;;;;;20.30;70.20;;;;;;5048216;28;1957;-66
2023/06/17 02:37:41;;;;;;;;;;;20.30;70.20;;;;;;5047469;28;947;-66
2023/06/17 02:40:08;;;;;;;;;;;20.30;70.20;;;;;;5048107;28;839;-66
2023/06/17 02:42:37;;;;;;;;;;;20.30;70.20;;;;;;5046518;28;935;-66
2023/06/17 02:45:03;;;;;;;;;;;20.30;70.20;;;;;;5048126;28;1263;-66
2023/06/17 02:47:28;;;;;;;;;;;20.30;70.20;;;;;;5048216;28;903;-66
2023/06/17 02:49:54;;;;;;;;;;;20.30;70.30;;;;;;5046468;28;903;-66
2023/06/17 02:52:21;;;;;;;;;;;20.20;70.20;;;;;;5048162;28;850;-66
2023/06/17 02:54:46;;;;;;;;;;;20.30;70.20;;;;;;5050552;28;1905;-66
2023/06/17 02:57:12;;;;;;;;;;;20.30;70.20;;;;;;5049605;28;930;-66
2023/06/17 02:59:38;;;;;;;;;;;20.30;70.20;;;;;;5047992;28;1026;-66
2023/06/17 03:02:04;;;;;;;;;;;20.30;70.20;;;;;;5048667;28;887;-66
2023/06/17 03:04:34;;;;;;;;;;;20.30;70.20;;;;;;5044451;28;1336;-66
2023/06/17 03:07:11;;;;;;;;;;;20.30;70.20;;;;;;5046984;28;832;-66
2023/06/17 03:09:37;;;;;;;;;;;20.30;70.40;;;;;;5044159;28;914;-66
2023/06/17 03:12:03;;;;;;;;;;;20.30;71.00;;;;;;5044176;28;836;-66
2023/06/17 03:14:29;;;;;;;;;;;20.30;70.20;;;;;;5045338;28;1925;-66
2023/06/17 03:16:57;;;;;;;;;;;20.20;70.20;;;;;;5044973;28;923;-66
2023/06/17 03:19:25;;;;;;;;;;;20.30;70.30;;;;;;5041455;28;927;-66
2023/06/17 03:21:51;;;;;;;;;;;20.30;70.20;;;;;;5049705;28;1093;-66
2023/06/17 03:24:17;;;;;;;;;;;20.30;70.20;;;;;;5027987;28;1324;-66
2023/06/17 03:26:42;;;;;;;;;;;20.30;70.20;;;;;;5049102;28;853;-66
2023/06/17 03:29:08;;;;;;;;;;;20.30;70.30;;;;;;5047595;28;985;-66
2023/06/17 03:31:33;;;;;;;;;;;20.30;70.30;;;;;;5039016;28;935;-66
2023/06/17 03:33:59;;;;;;;;;;;20.30;70.30;;;;;;5048435;28;1256;-66
2023/06/17 03:36:25;;;;;;;;;;;20.30;70.30;;;;;;5048365;28;1983;-66
2023/06/17 03:38:50;;;;;;;;;;;20.30;70.30;;;;;;5048519;28;902;-66
2023/06/17 03:41:16;;;;;;;;;;;20.30;70.30;;;;;;5046647;28;1053;-67
2023/06/17 03:43:41;;;;;;;;;;;20.20;70.20;;;;;;5047220;28;816;-67
2023/06/17 03:46:07;;;;;;;;;;;20.30;70.30;;;;;;5046857;28;1250;-66
2023/06/17 03:48:32;;;;;;;;;;;20.30;70.30;;;;;;5047884;28;796;-67
2023/06/17 03:50:58;;;;;;;;;;;20.30;70.30;;;;;;5048101;28;832;-66
2023/06/17 03:53:23;;;;;;;;;;;20.30;70.30;;;;;;5049038;28;959;-66
2023/06/17 03:55:48;;;;;;;;;;;20.30;70.30;;;;;;5048253;28;1906;-67
2023/06/17 03:58:14;;;;;;;;;;;20.20;70.20;;;;;;5046243;28;876;-66
2023/06/17 04:00:40;;;;;;;;;;;20.30;70.30;;;;;;5048504;28;915;-66
2023/06/17 04:03:06;;;;;;;;;;;20.30;70.30;;;;;;5048417;28;883;-67
2023/06/17 04:05:32;;;;;;;;;;;20.20;70.20;;;;;;5047344;28;1256;-66
2023/06/17 04:07:59;;;;;;;;;;;20.20;70.20;;;;;;5045305;28;858;-66
2023/06/17 04:10:24;;;;;;;;;;;20.30;70.30;;;;;;5046682;28;856;-66
2023/06/17 04:12:50;;;;;;;;;;;20.20;70.20;;;;;;5046635;28;1006;-67
2023/06/17 04:15:16;;;;;;;;;;;20.30;70.30;;;;;;5047380;28;1898;-66
2023/06/17 04:17:42;;;;;;;;;;;20.20;70.20;;;;;;5043872;28;1885;-66
2023/06/17 04:20:10;;;;;;;;;;;20.30;70.30;;;;;;5047880;28;800;-67
2023/06/17 04:22:37;;;;;;;;;;;20.20;70.20;;;;;;5047656;28;824;-66
2023/06/17 04:25:04;;;;;;;;;;;20.30;70.30;;;;;;5048314;28;1222;-66
2023/06/17 04:27:29;;;;;;;;;;;20.20;70.20;;;;;;5046289;28;1488;-66
2023/06/17 04:29:56;;;;;;;;;;;20.20;70.20;;;;;;5048307;28;827;-66
2023/06/17 04:32:22;;;;;;;;;;;20.30;70.30;;;;;;5048377;28;916;-66
2023/06/17 04:34:47;;;;;;;;;;;20.20;70.20;;;;;;5048689;28;1905;-67
2023/06/17 04:37:16;;;;;;;;;;;20.30;70.30;;;;;;5047850;28;871;-66
2023/06/17 04:39:42;;;;;;;;;;;20.20;70.30;;;;;;5043878;28;932;-66
2023/06/17 04:42:08;;;;;;;;;;;20.20;70.20;;;;;;5049597;28;965;-66
2023/06/17 04:44:33;;;;;;;;;;;20.20;70.30;;;;;;5048785;28;1255;-66
2023/06/17 04:46:59;;;;;;;;;;;20.20;70.30;;;;;;5048870;28;883;-66
2023/06/17 04:49:25;;;;;;;;;;;20.20;70.30;;;;;;5047292;28;886;-66
2023/06/17 04:51:52;;;;;;;;;;;20.20;70.20;;;;;;5045990;28;1058;-67
2023/06/17 04:54:18;;;;;;;;;;;20.20;70.20;;;;;;5046670;28;1322;-66
2023/06/17 04:56:43;;;;;;;;;;;20.20;70.30;;;;;;5048314;28;1910;-66
2023/06/17 04:59:09;;;;;;;;;;;20.20;70.20;;;;;;5049778;28;809;-66
2023/06/17 05:01:34;;;;;;;;;;;20.30;70.40;;;;;;5048955;28;827;-67
2023/06/17 05:04:00;;;;;;;;;;;20.20;70.20;;;;;;5046796;28;1354;-66
2023/06/17 05:06:26;;;;;;;;;;;20.20;70.30;;;;;;5046548;28;940;-66
2023/06/17 05:08:51;;;;;;;;;;;20.20;70.30;;;;;;5040555;28;938;-67
2023/06/17 05:11:16;;;;;;;;;;;20.20;70.30;;;;;;5050995;28;786;-66
2023/06/17 05:13:42;;;;;;;;;;;20.20;70.30;;;;;;5051790;28;843;-66
2023/06/17 05:16:07;;;;;;;;;;;20.20;70.30;;;;;;5051478;28;1971;-66
2023/06/17 05:18:33;;;;;;;;;;;20.20;70.20;;;;;;5051109;28;882;-67
2023/06/17 05:20:58;;;;;;;;;;;20.20;70.30;;;;;;5049691;28;857;-67
2023/06/17 05:23:24;;;;;;;;;;;20.20;70.30;;;;;;5049292;28;1261;-66
2023/06/17 05:25:49;;;;;;;;;;;20.20;70.30;;;;;;5049432;28;1269;-67
2023/06/17 05:28:15;;;;;;;;;;;20.20;70.30;;;;;;5049803;28;1430;-66
2023/06/17 05:30:40;;;;;;;;;;;20.20;70.30;;;;;;5050048;28;820;-66
2023/06/17 05:33:06;;;;;;;;;;;20.30;70.30;;;;;;5048590;28;851;-66
2023/06/17 05:35:31;;;;;;;;;;;20.20;70.30;;;;;;5045515;28;1906;-66
2023/06/17 05:37:57;;;;;;;;;;;20.20;70.30;;;;;;5051059;28;1574;-67
2023/06/17 05:40:22;;;;;;;;;;;20.20;70.30;;;;;;5052152;28;931;-67
2023/06/17 05:42:47;;;;;;;;;;;20.20;70.30;;;;;;5049390;28;903;-66
2023/06/17 05:45:13;;;;;;;;;;;20.20;70.30;;;;;;5048281;28;1259;-66
2023/06/17 05:47:38;;;;;;;;;;;20.20;70.30;;;;;;5049400;28;884;-65
2023/06/17 05:50:04;;;;;;;;;;;20.20;71.00;;;;;;5040853;28;1377;-66
2023/06/17 05:52:29;;;;;;;;;;;20.20;70.30;;;;;;5049291;28;827;-66
2023/06/17 05:54:55;;;;;;;;;;;20.20;70.30;;;;;;5048651;28;1914;-66
2023/06/17 05:57:21;;;;;;;;;;;20.20;70.30;;;;;;5049637;28;860;-66
2023/06/17 05:59:46;;;;;;;;;;;20.20;70.30;;;;;;5050687;28;856;-66
2023/06/17 06:02:12;;;;;;;;;;;20.20;70.20;;;;;;5048843;28;888;-66
2023/06/17 06:04:37;;;;;;;;;;;20.20;70.40;;;;;;5049791;28;1272;-66
2023/06/17 06:07:03;;;;;;;;;;;20.20;70.70;;;;;;5049597;28;902;-66
2023/06/17 06:09:28;;;;;;;;;;;20.20;70.60;;;;;;5048459;28;1371;-66
2023/06/17 06:11:54;;;;;;;;;;;20.20;70.60;;;;;;5048699;28;1812;-68
2023/06/17 06:14:20;;;;;;;;;;;20.20;70.60;;;;;;5049942;28;1399;-68
2023/06/17 06:16:45;;;;;;;;;;;20.20;70.70;;;;;;5048482;28;1969;-67
2023/06/17 06:19:10;;;;;;;;;;;20.20;70.70;;;;;;5051203;28;827;-67
2023/06/17 06:21:36;;;;;;;;;;;20.20;70.80;;;;;;5045979;28;1291;-67
2023/06/17 06:24:01;;;;;;;;;;;20.20;70.90;;;;;;5048397;28;1369;-66
2023/06/17 06:26:27;;;;;;;;;;;20.20;70.90;;;;;;5049094;28;2023;-67
2023/06/17 06:28:53;;;;;;;;;;;20.20;71.00;;;;;;5048252;28;5258;-67
2023/06/17 06:31:19;;;;;;;;;;;20.20;71.00;;;;;;5046712;28;1365;-66
2023/06/17 06:33:44;;;;;;;;;;;20.20;71.00;;;;;;5049492;28;864;-67
2023/06/17 06:36:10;;;;;;;;;;;20.20;71.80;;;;;;5050949;28;1910;-68
2023/06/17 06:38:35;;;;;;;;;;;20.20;71.10;;;;;;5050390;28;855;-69
2023/06/17 06:41:01;;;;;;;;;;;20.20;71.20;;;;;;5050236;28;765;-70
2023/06/17 06:43:26;;;;;;;;;;;20.20;71.20;;;;;;5050199;28;799;-68
2023/06/17 06:45:52;;;;;;;;;;;20.20;71.30;;;;;;5049437;28;1261;-69
2023/06/17 06:48:17;;;;;;;;;;;20.20;71.40;;;;;;5047419;28;862;-69
2023/06/17 06:50:43;;;;;;;;;;;20.20;71.50;;;;;;5031675;28;1474;-69
2023/06/17 06:53:08;;;;;;;;;;;20.20;71.40;;;;;;5047755;28;901;-69
2023/06/17 06:55:34;;;;;;;;;;;20.20;71.40;;;;;;5046835;28;1967;-69
2023/06/17 06:58:00;;;;;;;;;;;20.20;71.30;;;;;;5050280;28;801;-69
2023/06/17 07:00:25;;;;;;;;;;;20.20;71.20;;;;;;5045595;28;1225;-69
2023/06/17 07:02:51;;;;;;;;;;;20.20;71.10;;;;;;5044400;28;1504;-67
2023/06/17 07:05:16;;;;;;;;;;;20.20;71.20;;;;;;5045031;28;1954;-68
2023/06/17 07:07:42;;;;;;;;;;;20.20;71.20;;;;;;5046153;28;1853;-68
2023/06/17 07:10:07;;;;;;;;;;;20.20;71.40;;;;;;5043896;28;1895;-67
2023/06/17 07:12:33;;;;;;;;;;;20.30;71.70;;;;;;5045494;28;1411;-67
2023/06/17 07:14:58;;;;;;;;;;;20.30;71.80;;;;;;5046542;28;1961;-67
2023/06/17 07:17:23;;;;;;;;;;;20.30;71.90;;;;;;5044480;28;1490;-67
2023/06/17 07:19:49;;;;;;;;;;;20.40;71.80;;;;;;5047761;28;1211;-67
2023/06/17 07:22:15;;;;;;;;;;;20.40;71.80;;;;;;5042647;28;1371;-68
2023/06/17 07:24:40;;;;;;;;;;;20.40;71.90;;;;;;5045434;28;1380;-68
2023/06/17 07:27:06;;;;;;;;;;;20.40;71.90;;;;;;5044164;28;1479;-68
2023/06/17 07:29:32;;;;;;;;;;;20.40;72.10;;;;;;5048370;28;1006;-67
2023/06/17 07:31:57;;;;;;;;;;;20.50;72.00;;;;;;5046670;28;898;-67
2023/06/17 07:34:23;;;;;;;;;;;20.50;71.80;;;;;;5048055;28;1283;-67
2023/06/17 07:36:52;;;;;;;;;;;20.50;71.80;;;;;;5048329;28;2158;-67
2023/06/17 07:39:20;;;;;;;;;;;20.50;71.90;;;;;;5047249;28;1253;-67
2023/06/17 07:41:46;;;;;;;;;;;20.50;71.80;;;;;;5044275;28;1814;-68
2023/06/17 07:44:11;;;;;;;;;;;20.50;71.80;;;;;;5039974;28;1368;-67
2023/06/17 07:46:37;;;;;;;;;;;20.50;71.80;;;;;;5039786;28;1452;-67
2023/06/17 07:49:02;;;;;;;;;;;20.50;71.90;;;;;;5048178;28;1238;-68
2023/06/17 07:51:28;;;;;;;;;;;20.60;72.00;;;;;;5048495;28;1159;-67
2023/06/17 07:53:53;;;;;;;;;;;20.60;72.10;;;;;;5048151;28;1351;-67
2023/06/17 07:56:19;;;;;;;;;;;20.60;72.10;;;;;;5036874;28;1910;-67
2023/06/17 07:58:45;;;;;;;;;;;20.60;72.20;;;;;;5048331;28;891;-67
2023/06/17 08:01:11;;;;;;;;;;;20.60;72.30;;;;;;5046666;28;848;-67
2023/06/17 08:03:37;;;;;;;;;;;20.60;72.30;;;;;;5047977;28;876;-68
2023/06/17 08:06:03;;;;;;;;;;;20.60;72.40;;;;;;5046466;28;1280;-67
2023/06/17 08:08:29;;;;;;;;;;;20.60;72.50;;;;;;5044500;28;1175;-67
2023/06/17 08:10:54;;;;;;;;;;;20.60;72.60;;;;;;5047371;28;958;-67
2023/06/17 08:13:20;;;;;;;;;;;20.60;72.70;;;;;;5048958;28;887;-68
2023/06/17 08:15:45;;;;;;;;;;;20.60;72.90;;;;;;5048940;28;1957;-68
2023/06/17 08:18:10;;;;;;;;;;;20.60;73.20;;;;;;5048642;28;1053;-68
2023/06/17 08:20:36;;;;;;;;;;;20.60;74.20;;;;;;5048791;28;804;-69
2023/06/17 08:23:02;;;;;;;;;;;20.70;73.50;;;;;;5050436;28;1023;-69
2023/06/17 08:25:28;;;;;;;;;;;20.70;73.60;;;;;;5032151;28;1370;-67
2023/06/17 08:27:53;;;;;;;;;;;20.60;73.60;;;;;;5047518;28;1160;-68
2023/06/17 08:30:19;;;;;;;;;;;20.60;73.80;;;;;;5052696;28;1026;-68
2023/06/17 08:32:44;;;;;;;;;;;20.70;74.10;;;;;;5052012;28;836;-69
2023/06/17 08:35:10;;;;;;;;;;;20.70;74.10;;;;;;5052314;28;1901;-68
2023/06/17 08:37:35;;;;;;;;;;;20.70;73.90;;;;;;5052575;28;901;-68
2023/06/17 08:40:02;;;;;;;;;;;20.70;73.80;;;;;;5051117;28;861;-68
2023/06/17 08:42:28;;;;;;;;;;;20.70;73.80;;;;;;5049706;28;860;-68
2023/06/17 08:44:53;;;;;;;;;;;20.70;74.90;;;;;;5049021;28;1252;-67
2023/06/17 08:47:18;;;;;;;;;;;20.80;75.00;;;;;;5051816;28;859;-68
2023/06/17 08:49:44;;;;;;;;;;;20.80;74.80;;;;;;5050281;28;1042;-67
2023/06/17 08:52:11;;;;;;;;;;;20.90;74.40;;;;;;5048780;28;890;-67
2023/06/17 08:54:40;;;;;;;;;;;20.90;74.20;;;;;;5049797;28;1902;-68
2023/06/17 08:57:09;;;;;;;;;;;20.90;73.90;;;;;;5042098;28;860;-68
2023/06/17 08:59:35;;;;;;;;;;;20.90;73.60;;;;;;5046963;28;902;-68
2023/06/17 09:02:00;;;;;;;;;;;20.90;73.50;;;;;;5051746;28;1156;-68
2023/06/17 09:04:26;;;;;;;;;;;20.90;73.40;;;;;;5048555;28;1292;-68
2023/06/17 09:06:52;;;;;;;;;;;20.90;73.40;;;;;;5050789;28;817;-67
2023/06/17 09:09:18;;;;;;;;;;;20.90;73.80;;;;;;5049391;28;892;-68
2023/06/17 09:11:47;;;;;;;;;;;20.90;73.30;;;;;;5047326;28;1990;-67
2023/06/17 09:14:12;;;;;;;;;;;20.90;73.30;;;;;;5049190;28;1455;-68
2023/06/17 09:16:38;;;;;;;;;;;20.90;73.30;;;;;;5047140;28;1987;-68
2023/06/17 09:19:05;;;;;;;;;;;20.90;73.30;;;;;;5049301;28;866;-68
2023/06/17 09:21:31;;;;;;;;;;;20.90;73.30;;;;;;5044877;28;872;-68
2023/06/17 09:24:00;;;;;;;;;;;20.90;73.30;;;;;;5050441;28;1369;-68
2023/06/17 09:26:28;;;;;;;;;;;20.90;73.30;;;;;;5050645;28;950;-67
2023/06/17 09:28:53;;;;;;;;;;;20.90;73.30;;;;;;5051563;28;1351;-68
2023/06/17 09:31:19;;;;;;;;;;;20.90;73.30;;;;;;5050835;28;1215;-68
2023/06/17 09:33:45;;;;;;;;;;;20.90;73.30;;;;;;5049671;28;930;-67
2023/06/17 09:36:10;;;;;;;;;;;20.90;73.30;;;;;;5046573;28;1979;-67
2023/06/17 09:38:37;;;;;;;;;;;20.90;73.30;;;;;;5049060;28;831;-67
2023/06/17 09:41:02;;;;;;;;;;;20.90;73.30;;;;;;5046910;28;1189;-67
2023/06/17 09:43:28;;;;;;;;;;;20.80;73.20;;;;;;5050546;28;879;-68
2023/06/17 09:45:59;;;;;;;;;;;20.80;73.40;;;;;;5051213;28;1781;-68
2023/06/17 09:48:30;;;;;;;;;;;20.80;73.40;;;;;;5050855;28;1306;-68
2023/06/17 09:50:57;;;;;;;;;;;20.80;73.40;;;;;;5046678;28;839;-68
2023/06/17 09:53:23;;;;;;;;;;;20.80;73.60;;;;;;5042007;28;1416;-68
2023/06/17 09:55:55;;;;;;;;;;;20.80;73.80;;;;;;5048513;28;1897;-68
2023/06/17 09:58:22;;;;;;;;;;;20.80;74.60;;;;;;5035064;28;1291;-68
2023/06/17 10:00:47;;;;;;;;;;;20.80;73.90;;;;;;5047775;28;922;-68
2023/06/17 10:03:13;;;;;;;;;;;20.90;74.00;;;;;;5048193;28;916;-68
2023/06/17 10:05:38;;;;;;;;;;;20.80;73.90;;;;;;5050923;28;1280;-68
2023/06/17 10:08:04;;;;;;;;;;;20.90;74.00;;;;;;5051605;28;801;-68
2023/06/17 10:10:29;;;;;;;;;;;20.90;74.10;;;;;;5051047;28;906;-68
2023/06/17 10:12:54;;;;;;;;;;;20.90;74.10;;;;;;5047393;28;847;-68
2023/06/17 10:15:20;;;;;;;;;;;20.90;74.10;;;;;;5047430;28;1894;-68
2023/06/17 10:17:45;;;;;;;;;;;20.90;74.20;;;;;;5051011;28;820;-68
2023/06/17 10:20:11;;;;;;;;;;;20.90;74.30;;;;;;5049181;28;944;-68
2023/06/17 10:22:37;;;;;;;;;;;20.90;74.30;;;;;;5049664;28;1013;-68
2023/06/17 10:25:04;;;;;;;;;;;20.90;74.40;;;;;;5047777;28;1284;-68
2023/06/17 10:27:31;;;;;;;;;;;20.90;74.70;;;;;;5038851;28;1569;-68
2023/06/17 10:29:57;;;;;;;;;;;20.90;74.70;;;;;;5046369;28;851;-68
2023/06/17 10:32:24;;;;;;;;;;;20.90;74.80;;;;;;5050509;28;793;-68
2023/06/17 10:35:18;;;;;;;;;;;20.90;74.80;;;;;;5049151;28;1898;-68
2023/06/17 10:37:47;;;;;;;;;;;20.90;74.80;;;;;;5036354;28;1385;-67
2023/06/17 10:40:26;;;;;;;;;;;20.90;74.90;;;;;;5048977;28;931;-67
2023/06/17 10:42:55;;;;;;;;;;;20.90;75.00;;;;;;5047986;28;884;-68
2023/06/17 10:45:21;;;;;;;;;;;20.90;75.20;;;;;;5049205;28;1311;-68
2023/06/17 10:47:46;;;;;;;;;;;20.90;75.10;;;;;;5048730;28;824;-68
2023/06/17 10:50:12;;;;;;;;;;;20.90;75.10;;;;;;5047481;28;888;-68
2023/06/17 10:52:40;;;;;;;;;;;20.90;75.00;;;;;;5048669;28;891;-68
2023/06/17 10:55:06;;;;;;;;;;;20.90;74.90;;;;;;5048653;28;2009;-68
2023/06/17 10:57:32;;;;;;;;;;;21.00;75.20;;;;;;5049435;28;947;-68
2023/06/17 11:00:06;;;;;;;;;;;21.00;75.10;;;;;;5046404;28;1214;-68
2023/06/17 11:02:31;;;;;;;;;;;21.00;74.90;;;;;;5046932;28;836;-67
2023/06/17 11:04:57;;;;;;;;;;;21.00;74.80;;;;;;5048702;28;1296;-68
2023/06/17 11:07:26;;;;;;;;;;;21.00;74.60;;;;;;5048834;28;854;-68
2023/06/17 11:09:51;;;;;;;;;;;21.00;74.60;;;;;;5048629;28;886;-68
2023/06/17 11:12:17;;;;;;;;;;;21.00;74.60;;;;;;5046269;28;831;-68
2023/06/17 11:14:43;;;;;;;;;;;21.00;74.80;;;;;;5049559;28;1969;-67
2023/06/17 11:17:08;;;;;;;;;;;21.00;74.80;;;;;;5049049;28;1221;-68
2023/06/17 11:19:34;;;;;;;;;;;21.00;74.80;;;;;;5047935;28;880;-67
2023/06/17 11:22:07;;;;;;;;;;;21.00;74.80;;;;;;5048111;28;1356;-68
2023/06/17 11:24:32;;;;;;;;;;;21.00;74.90;;;;;;5048566;28;1322;-68
2023/06/17 11:26:58;;;;;;;;;;;21.00;75.00;;;;;;5048656;28;1488;-68
2023/06/17 11:29:27;;;;;;;;;;;21.00;74.90;;;;;;5048048;28;2123;-68
2023/06/17 11:31:59;;;;;;;;;;;21.00;74.90;;;;;;5044729;28;1945;-69
2023/06/17 11:34:24;;;;;;;;;;;21.00;75.00;;;;;;5049679;28;1482;-68
2023/06/17 11:36:52;;;;;;;;;;;21.00;74.90;;;;;;5048785;28;1894;-69
2023/06/17 11:39:26;;;;;;;;;;;21.00;74.80;;;;;;5044062;28;915;-68
2023/06/17 11:41:52;;;;;;;;;;;21.00;74.80;;;;;;5047679;28;1590;-68
2023/06/17 11:44:18;;;;;;;;;;;21.00;74.80;;;;;;5047467;28;1300;-68
2023/06/17 11:46:44;;;;;;;;;;;21.00;74.80;;;;;;5045189;28;899;-68
2023/06/17 11:49:10;;;;;;;;;;;21.00;74.80;;;;;;5046890;28;899;-69
2023/06/17 11:51:36;;;;;;;;;;;21.00;74.90;;;;;;5047622;28;887;-68
2023/06/17 11:54:05;;;;;;;;;;;21.00;75.20;;;;;;5048933;28;1299;-68
2023/06/17 11:56:32;;;;;;;;;;;21.00;75.30;;;;;;5048145;28;1910;-68
2023/06/17 11:58:57;;;;;;;;;;;21.00;75.20;;;;;;5048545;28;919;-68
2023/06/17 12:01:23;;;;;;;;;;;21.00;75.00;;;;;;5048519;28;808;-69
2023/06/17 12:03:48;;;;;;;;;;;21.00;74.90;;;;;;5047793;28;986;-68
2023/06/17 12:06:18;;;;;;;;;;;21.00;74.70;;;;;;5048245;28;1316;-67
2023/06/17 12:08:43;;;;;;;;;;;21.00;73.40;;;;;;5048146;28;902;-68
2023/06/17 12:11:22;;;;;;;;;;;21.00;72.50;;;;;;5048069;28;820;-68
2023/06/17 12:13:50;;;;;;;;;;;20.90;72.20;;;;;;5046753;28;1170;-69
2023/06/17 12:16:27;;;;;;;;;;;20.80;72.20;;;;;;5049459;28;1886;-68
2023/06/17 12:18:52;;;;;;;;;;;20.80;72.40;;;;;;5044211;28;1150;-68
2023/06/17 12:21:21;;;;;;;;;;;20.80;72.50;;;;;;5046267;28;1254;-69
2023/06/17 12:23:48;;;;;;;;;;;20.70;72.50;;;;;;5048092;28;1287;-69
2023/06/17 12:26:15;;;;;;;;;;;20.70;72.50;;;;;;5045955;28;1245;-67
2023/06/17 12:28:40;;;;;;;;;;;20.70;72.60;;;;;;5043924;28;1919;-67
2023/06/17 12:31:06;;;;;;;;;;;20.60;72.50;;;;;;5047455;28;1354;-69
2023/06/17 12:33:31;;;;;;;;;;;20.60;72.60;;;;;;5047252;28;1478;-68
2023/06/17 12:35:57;;;;;;;;;;;20.60;72.70;;;;;;5047173;28;1898;-68
2023/06/17 12:38:24;;;;;;;;;;;20.60;72.70;;;;;;5048076;28;1852;-68
2023/06/17 12:40:50;;;;;;;;;;;20.60;72.80;;;;;;5048122;28;1445;-68
2023/06/17 12:43:15;;;;;;;;;;;20.60;72.80;;;;;;5048192;28;1659;-68
2023/06/17 12:45:41;;;;;;;;;;;20.60;72.80;;;;;;5046954;28;1361;-68
2023/06/17 12:48:06;;;;;;;;;;;20.60;73.00;;;;;;5044800;28;1356;-68
2023/06/17 12:50:32;;;;;;;;;;;20.60;73.00;;;;;;5047669;28;938;-69
2023/06/17 12:52:57;;;;;;;;;;;20.50;73.00;;;;;;5047908;28;925;-68
2023/06/17 12:55:23;;;;;;;;;;;20.50;73.00;;;;;;5045920;28;1910;-68
2023/06/17 12:57:48;;;;;;;;;;;20.50;73.10;;;;;;5043772;28;1966;-68
2023/06/17 13:00:14;;;;;;;;;;;20.50;73.10;;;;;;5045729;28;1423;-67
2023/06/17 13:02:40;;;;;;;;;;;20.50;73.20;;;;;;5044976;28;1417;-68
2023/06/17 13:05:07;;;;;;;;;;;20.50;73.20;;;;;;5046419;28;1296;-69
2023/06/17 13:07:32;;;;;;;;;;;20.50;73.30;;;;;;5036109;28;980;-68
2023/06/17 13:09:58;;;;;;;;;;;20.50;73.20;;;;;;5048272;28;864;-68
2023/06/17 13:12:23;;;;;;;;;;;20.50;73.20;;;;;;5047082;28;899;-67
2023/06/17 13:14:49;;;;;;;;;;;20.40;73.20;;;;;;5043677;28;1992;-66
2023/06/17 13:17:14;;;;;;;;;;;20.40;73.20;;;;;;5046168;28;1933;-68
2023/06/17 13:19:40;;;;;;;;;;;20.50;73.10;;;;;;5047485;28;1482;-68
2023/06/17 13:22:05;;;;;;;;;;;20.50;73.00;;;;;;5049054;28;1321;-67
2023/06/17 13:24:31;;;;;;;;;;;20.50;72.90;;;;;;5051048;28;1483;-67
2023/06/17 13:26:57;;;;;;;;;;;20.50;72.80;;;;;;5049047;28;2128;-66
2023/06/17 13:29:23;;;;;;;;;;;20.50;72.60;;;;;;5043532;28;1850;-67
2023/06/17 13:31:48;;;;;;;;;;;20.50;72.50;;;;;;5051544;28;1306;-67
2023/06/17 13:34:14;;;;;;;;;;;20.40;72.40;;;;;;5045389;28;2227;-67
2023/06/17 13:36:44;;;;;;;;;;;20.50;72.30;;;;;;5049660;28;1927;-67
2023/06/17 13:39:10;;;;;;;;;;;20.50;72.20;;;;;;5048711;28;1997;-67
2023/06/17 13:41:36;;;;;;;;;;;20.50;72.20;;;;;;5050153;28;1403;-68
2023/06/17 13:44:02;;;;;;;;;;;20.50;72.20;;;;;;5048716;28;2093;-67
2023/06/17 13:46:27;;;;;;;;;;;20.50;72.30;;;;;;5048334;28;1957;-68
2023/06/17 13:48:53;;;;;;;;;;;20.50;72.20;;;;;;5046753;28;1396;-67
2023/06/17 13:51:18;;;;;;;;;;;20.50;72.20;;;;;;5049844;28;1445;-68
2023/06/17 13:53:44;;;;;;;;;;;20.50;72.10;;;;;;5050115;28;863;-68
2023/06/17 13:56:10;;;;;;;;;;;20.50;72.10;;;;;;5048100;28;1909;-68
2023/06/17 13:58:35;;;;;;;;;;;20.50;72.10;;;;;;5045706;28;859;-68
2023/06/17 14:01:02;;;;;;;;;;;20.50;72.00;;;;;;5049132;28;904;-69
2023/06/17 14:03:27;;;;;;;;;;;20.50;72.00;;;;;;5050147;28;844;-68
2023/06/17 14:05:53;;;;;;;;;;;20.50;71.90;;;;;;5050000;28;1240;-67
2023/06/17 14:08:18;;;;;;;;;;;20.50;71.90;;;;;;5046268;28;1251;-67
2023/06/17 14:10:44;;;;;;;;;;;20.50;71.80;;;;;;5047575;28;1125;-68
2023/06/17 14:13:09;;;;;;;;;;;20.50;71.80;;;;;;5049770;28;935;-68
2023/06/17 14:15:35;;;;;;;;;;;20.50;71.80;;;;;;5049306;28;1902;-67
2023/06/17 14:18:01;;;;;;;;;;;20.50;71.80;;;;;;5046101;28;838;-68
2023/06/17 14:20:26;;;;;;;;;;;20.50;71.70;;;;;;5049440;28;911;-68
2023/06/17 14:22:56;;;;;;;;;;;20.50;71.80;;;;;;5049577;28;2046;-68
2023/06/17 14:25:22;;;;;;;;;;;20.50;71.80;;;;;;5049219;28;1327;-68
2023/06/17 14:27:47;;;;;;;;;;;20.50;71.80;;;;;;5050589;28;1852;-68
2023/06/17 14:30:14;;;;;;;;;;;20.50;71.70;;;;;;5048994;28;1404;-67